Time;durP1;ratioP1;P1;durP2;ratioP2;P2;SDS_P1;SDS_P2;PMS_P1;PMS_P2;Temp;Humidity;BMP_temperature;BMP_pressure;BME280_temperature;BME280_humidity;BME280_pressure;Samples;Min_cycle;Max_cycle;Signal;HPM_P1;HPM_P2
2022/09/11 00:00:29;;;;;;;24.47;11.77;;;;;;;40.42;35.09;101349.84;4975255;28;20473;-72
2022/09/11 00:02:55;;;;;;;22.60;11.23;;;;;;;40.79;34.61;101346.66;4975407;28;20457;-73
2022/09/11 00:05:21;;;;;;;22.47;11.20;;;;;;;41.12;33.96;101337.34;4976864;28;20441;-73
2022/09/11 00:07:47;;;;;;;28.43;11.10;;;;;;;41.05;34.07;101340.53;4975380;28;20446;-72
2022/09/11 00:10:13;;;;;;;15.57;10.40;;;;;;;41.05;34.01;101335.88;4975263;28;20509;-72
2022/09/11 00:12:39;;;;;;;33.10;11.83;;;;;;;41.12;34.27;101331.88;4975347;28;20501;-72
2022/09/11 00:15:06;;;;;;;22.27;11.37;;;;;;;40.90;34.46;101335.50;4959145;28;20422;-73
2022/09/11 00:17:32;;;;;;;27.03;12.17;;;;;;;40.90;34.55;101328.19;4976941;28;20477;-71
2022/09/11 00:19:59;;;;;;;25.93;11.40;;;;;;;40.84;34.31;101336.75;4975121;28;20419;-72
2022/09/11 00:22:26;;;;;;;23.37;11.50;;;;;;;40.99;34.29;101322.75;4974988;28;20852;-71
2022/09/11 00:24:53;;;;;;;25.93;13.50;;;;;;;41.12;34.04;101319.09;4958999;28;20433;-71
2022/09/11 00:27:20;;;;;;;30.63;13.77;;;;;;;41.22;34.33;101321.50;4975342;28;20425;-71
2022/09/11 00:29:46;;;;;;;25.70;10.40;;;;;;;40.97;34.72;101327.72;4975020;28;20489;-71
2022/09/11 00:32:14;;;;;;;35.47;10.40;;;;;;;41.03;33.94;101313.63;4974932;28;20420;-71
2022/09/11 00:34:40;;;;;;;30.03;11.30;;;;;;;40.85;34.36;101320.13;4974891;28;20469;-71
2022/09/11 00:37:07;;;;;;;22.20;10.20;;;;;;;40.95;34.08;101310.91;4974917;28;20926;-71
2022/09/11 00:39:34;;;;;;;20.90;10.83;;;;;;;41.00;33.70;101310.72;4976298;28;20872;-71
2022/09/11 05:58:21;;;;;;;28.67;13.00;;;;;;;40.18;35.23;101225.97;6203152;22;884618;-73
2022/09/11 06:00:48;;;;;;;36.87;13.23;;;;;;;40.31;35.46;101228.88;6073849;23;2654886;-71
2022/09/11 06:03:18;;;;;;;24.00;15.20;;;;;;;40.25;35.26;101237.19;6189061;23;20164;-72
2022/09/11 06:05:44;;;;;;;24.83;13.27;;;;;;;40.35;35.29;101238.81;6215075;23;20371;-72
2022/09/11 06:08:11;;;;;;;22.67;13.60;;;;;;;40.47;34.78;101239.06;6188551;23;20434;-72
2022/09/11 06:10:46;;;;;;;30.70;15.87;;;;;;;40.55;35.33;101251.88;6188685;23;20403;-72
2022/09/11 06:13:16;;;;;;;21.73;13.40;;;;;;;40.71;34.87;101248.72;6188265;23;20379;-72
2022/09/11 06:15:47;;;;;;;25.03;12.50;;;;;;;40.67;34.95;101255.91;6189182;23;20384;-72
2022/09/11 06:18:15;;;;;;;42.63;13.63;;;;;;;40.67;34.44;101259.44;6188532;23;20847;-72
2022/09/11 06:20:41;;;;;;;19.47;12.80;;;;;;;40.61;34.69;101257.16;6189127;23;20376;-72
2022/09/11 06:23:11;;;;;;;28.00;14.00;;;;;;;40.61;34.26;101276.22;6189269;23;20403;-72
2022/09/11 06:25:38;;;;;;;26.53;15.17;;;;;;;40.21;35.07;101271.56;6189145;23;20391;-72
2022/09/11 06:28:04;;;;;;;30.30;15.37;;;;;;;40.43;34.65;101276.09;6189220;23;20408;-72
2022/09/11 06:30:30;;;;;;;21.53;13.13;;;;;;;40.37;34.78;101292.88;6215844;23;20398;-72
2022/09/11 06:32:57;;;;;;;26.60;13.50;;;;;;;40.21;35.29;101287.84;6189097;23;20379;-72
2022/09/11 06:35:23;;;;;;;25.50;13.97;;;;;;;40.43;34.46;101288.91;6189082;23;20375;-72
2022/09/11 06:37:49;;;;;;;27.03;15.43;;;;;;;40.48;34.67;101286.09;6189046;23;20411;-77
2022/09/11 06:40:16;;;;;;;35.83;15.53;;;;;;;40.57;34.75;101286.09;6215761;23;20828;-79
2022/09/11 06:42:43;;;;;;;25.93;14.10;;;;;;;40.62;34.58;101292.19;6189237;23;20402;-81
2022/09/11 06:45:09;;;;;;;36.47;15.93;;;;;;;40.57;34.87;101284.19;6188642;23;20417;-83
2022/09/11 06:47:35;;;;;;;32.50;15.90;;;;;;;40.49;35.17;101291.19;6187381;23;20427;-72
2022/09/11 06:50:01;;;;;;;26.73;15.33;;;;;;;40.65;34.80;101290.78;6189018;23;20379;-75
2022/09/11 06:52:27;;;;;;;29.37;15.40;;;;;;;40.56;34.37;101296.19;6188915;23;20375;-73
2022/09/11 06:54:53;;;;;;;35.67;15.67;;;;;;;40.42;34.87;101301.69;6189037;23;20739;-73
2022/09/11 06:57:19;;;;;;;29.60;15.37;;;;;;;40.26;35.27;101297.78;6188829;23;20458;-72
2022/09/11 06:59:46;;;;;;;30.87;13.60;;;;;;;40.41;35.50;101308.25;6167604;23;20497;-77
2022/09/11 07:02:12;;;;;;;40.77;14.80;;;;;;;40.43;35.50;101310.66;6158590;23;20736;-73
2022/09/11 07:04:38;;;;;;;40.73;15.30;;;;;;;40.07;35.73;101311.56;6184890;23;20450;-76
2022/09/11 07:07:04;;;;;;;34.70;13.03;;;;;;;40.30;35.21;101315.06;6158205;23;20742;-75
2022/09/11 07:09:30;;;;;;;21.50;13.20;;;;;;;40.25;35.60;101326.06;6158235;23;20376;-73
2022/09/11 07:11:56;;;;;;;21.03;13.60;;;;;;;40.08;36.13;101325.97;6158323;23;20789;-71
2022/09/11 07:14:35;;;;;;;23.90;12.57;;;;;;;40.15;36.16;101327.16;6184595;23;20369;-74
2022/09/11 07:17:01;;;;;;;31.53;12.83;;;;;;;39.89;36.31;101335.06;6157519;23;20865;-73
2022/09/11 07:19:27;;;;;;;25.63;13.50;;;;;;;40.16;35.74;101333.38;6184016;23;20357;-72
2022/09/11 07:21:53;;;;;;;34.50;15.73;;;;;;;40.16;35.37;101336.91;6157230;23;20560;-72
2022/09/11 07:24:19;;;;;;;38.77;15.17;;;;;;;40.01;35.69;101340.75;6183552;23;20415;-71
2022/09/11 07:26:47;;;;;;;36.50;15.37;;;;;;;39.80;35.62;101338.84;6185165;23;20435;-72
2022/09/11 07:29:13;;;;;;;36.50;15.67;;;;;;;40.35;35.17;101352.19;6185388;23;20367;-71
2022/09/11 07:31:39;;;;;;;19.50;12.37;;;;;;;40.45;34.35;101363.59;6183259;23;20720;-70
2022/09/11 07:34:05;;;;;;;29.97;14.30;;;;;;;40.24;35.17;101368.75;6158626;23;20377;-69
2022/09/11 07:36:33;;;;;;;33.07;14.87;;;;;;;39.31;36.68;101360.28;6158608;23;20424;-70
2022/09/11 07:39:00;;;;;;;27.23;13.10;;;;;;;40.03;35.57;101373.06;6184946;23;20353;-69
2022/09/11 07:41:27;;;;;;;33.00;12.97;;;;;;;40.45;34.97;101371.75;6157958;23;20415;-74
2022/09/11 07:43:55;;;;;;;25.80;12.53;;;;;;;40.32;34.84;101374.56;6158336;23;20411;-70
2022/09/11 07:46:23;;;;;;;18.40;12.13;;;;;;;40.25;34.99;101377.72;6158637;23;20376;-75
2022/09/11 07:48:49;;;;;;;22.87;11.43;;;;;;;40.37;34.93;101386.09;6158218;23;20380;-74
2022/09/11 07:51:20;;;;;;;39.90;17.33;;;;;;;40.33;34.92;101384.31;6158394;23;20408;-74
2022/09/11 07:53:48;;;;;;;23.70;12.90;;;;;;;40.52;34.43;101383.03;6158447;23;20376;-73
2022/09/11 07:56:17;;;;;;;34.27;12.97;;;;;;;40.58;34.57;101396.47;6184981;23;20884;-72
2022/09/11 07:58:44;;;;;;;34.57;16.07;;;;;;;40.83;33.72;101397.75;6158207;23;20883;-73
2022/09/11 08:01:13;;;;;;;33.63;13.70;;;;;;;40.94;34.14;101399.06;6158457;23;20847;-72
2022/09/11 08:03:41;;;;;;;42.53;11.80;;;;;;;40.87;34.28;101395.97;6158316;23;20376;-72
2022/09/11 08:06:13;;;;;;;24.10;12.50;;;;;;;41.13;33.51;101404.25;6158416;23;20372;-72
2022/09/11 08:08:40;;;;;;;22.30;12.60;;;;;;;41.34;33.36;101408.03;6158323;23;20721;-72
2022/09/11 08:11:16;;;;;;;31.53;14.00;;;;;;;41.16;33.20;101411.81;6158024;23;20379;-73
2022/09/11 08:13:46;;;;;;;25.30;13.63;;;;;;;41.18;33.89;101410.34;6158027;23;20383;-73
2022/09/11 08:16:12;;;;;;;21.90;13.07;;;;;;;41.27;33.94;101413.91;6156250;23;20420;-73
2022/09/11 08:18:38;;;;;;;39.80;13.80;;;;;;;41.45;33.77;101419.44;6154989;23;20384;-73
2022/09/11 08:21:10;;;;;;;33.23;16.33;;;;;;;41.14;34.17;101417.56;6157220;23;20896;-73
2022/09/11 08:23:39;;;;;;;25.97;13.90;;;;;;;41.15;34.09;101424.59;6158105;23;20374;-73
2022/09/11 08:26:07;;;;;;;40.53;14.37;;;;;;;41.33;34.28;101422.78;6158621;23;20871;-73
2022/09/11 08:28:35;;;;;;;24.17;12.57;;;;;;;40.65;35.05;101429.50;6158217;23;20403;-73
2022/09/11 08:31:04;;;;;;;29.43;12.20;;;;;;;40.86;35.32;101435.97;6158253;23;20415;-74
2022/09/11 08:33:36;;;;;;;38.40;12.47;;;;;;;40.80;34.57;101432.59;6183669;23;20825;-73
2022/09/11 08:36:05;;;;;;;38.43;16.10;;;;;;;40.45;35.38;101444.34;6158073;23;20435;-73
2022/09/11 08:38:32;;;;;;;31.67;14.33;;;;;;;40.33;36.24;101435.97;6184687;23;20345;-74
2022/09/11 08:41:10;;;;;;;29.43;12.87;;;;;;;40.66;35.78;101447.41;6157871;23;20733;-73
2022/09/11 08:43:43;;;;;;;26.83;15.80;;;;;;;40.60;35.43;101457.59;6158135;23;20408;-74
2022/09/11 08:46:11;;;;;;;26.67;15.00;;;;;;;40.40;35.46;101449.94;6158009;23;20376;-74
2022/09/11 08:49:16;;;;;;;20.00;13.00;;;;;;;40.48;35.20;101457.38;6157622;23;20391;-73
2022/09/11 08:51:44;;;;;;;33.97;14.37;;;;;;;40.54;35.45;101464.28;6183959;23;20431;-73
2022/09/11 08:54:26;;;;;;;31.00;13.10;;;;;;;40.74;35.16;101463.75;6156640;23;20377;-74
2022/09/11 08:57:04;;;;;;;30.23;14.43;;;;;;;40.47;35.56;101467.44;6183466;23;20408;-74
2022/09/11 08:59:49;;;;;;;29.77;13.73;;;;;;;40.83;35.40;101468.47;6156606;23;20440;-74
2022/09/11 09:02:39;;;;;;;42.73;13.13;;;;;;;41.08;34.54;101476.78;6156611;23;20844;-73
2022/09/11 09:05:08;;;;;;;37.30;15.93;;;;;;;40.67;34.85;101471.56;6157084;23;20466;-73
2022/09/11 09:07:45;;;;;;;31.73;16.13;;;;;;;40.94;34.78;101470.63;6183472;23;20732;-74
2022/09/11 09:10:23;;;;;;;30.00;15.60;;;;;;;40.20;36.02;101471.03;6159681;23;20410;-73
2022/09/11 09:13:46;;;;;;;24.10;14.33;;;;;;;40.07;36.51;101463.75;6159723;23;20466;-73
2022/09/11 09:16:44;;;;;;;25.07;12.90;;;;;;;40.37;36.07;101470.38;6126459;23;20439;-74
2022/09/11 09:19:14;;;;;;;26.30;14.37;;;;;;;40.66;35.04;101464.53;6159998;23;20408;-73
2022/09/11 09:21:44;;;;;;;44.93;16.03;;;;;;;40.53;35.16;101468.13;6159969;23;20419;-73
2022/09/11 09:24:20;;;;;;;26.87;14.97;;;;;;;40.81;34.84;101464.13;6159674;23;20399;-75
2022/09/11 09:26:53;;;;;;;25.03;12.57;;;;;;;41.05;34.86;101469.22;6186698;23;20375;-73
2022/09/11 09:29:22;;;;;;;26.43;13.17;;;;;;;41.00;34.48;101463.13;6158589;23;20763;-73
2022/09/11 09:32:03;;;;;;;32.50;13.67;;;;;;;40.57;35.34;101463.66;6158439;23;20831;-75
2022/09/11 09:34:33;;;;;;;39.30;15.43;;;;;;;41.06;34.54;101470.81;6158301;23;20844;-76
2022/09/11 09:37:10;;;;;;;25.53;14.10;;;;;;;41.09;34.57;101472.13;6133931;23;20467;-74
2022/09/11 09:39:36;;;;;;;25.67;14.63;;;;;;;41.05;34.89;101466.50;6158465;23;20414;-75
2022/09/11 09:42:47;;;;;;;25.17;11.87;;;;;;;40.98;34.91;101468.88;6133922;23;20845;-75
2022/09/11 09:45:20;;;;;;;33.70;15.33;;;;;;;41.11;34.61;101472.63;6140780;23;20450;-75
2022/09/11 09:47:47;;;;;;;21.73;12.63;;;;;;;41.00;34.87;101468.56;6158618;23;20388;-76
2022/09/11 09:50:28;;;;;;;28.50;12.70;;;;;;;40.22;35.43;101476.19;6184976;23;20904;-76
2022/09/11 09:53:04;;;;;;;30.43;13.07;;;;;;;39.81;36.60;101460.78;6158087;23;20407;-75
2022/09/11 09:55:34;;;;;;;23.60;14.27;;;;;;;40.45;35.48;101458.75;6158363;23;20383;-77
2022/09/11 09:58:01;;;;;;;30.37;14.73;;;;;;;40.85;34.90;101461.59;6159088;23;20502;-75
2022/09/11 10:00:31;;;;;;;24.20;13.20;;;;;;;40.55;35.03;101457.72;6158893;23;20439;-75
2022/09/11 10:02:57;;;;;;;30.00;15.33;;;;;;;40.75;34.75;101456.41;6159201;23;20431;-75
2022/09/11 10:05:25;;;;;;;35.50;12.97;;;;;;;40.74;35.21;101462.97;6185992;23;20373;-75
2022/09/11 10:08:25;;;;;;;22.93;14.43;;;;;;;40.18;35.56;101458.88;6158181;23;20365;-77
2022/09/11 10:11:10;;;;;;;32.13;13.30;;;;;;;40.68;34.59;101445.16;6149187;23;20723;-76
2022/09/11 10:13:52;;;;;;;30.03;15.30;;;;;;;40.33;35.37;101455.81;6158064;23;20384;-75
2022/09/11 10:16:20;;;;;;;29.50;15.20;;;;;;;40.53;34.90;101451.81;6157868;23;20419;-76
2022/09/11 10:18:46;;;;;;;22.17;13.03;;;;;;;41.17;34.21;101443.34;6158315;23;20868;-76
2022/09/11 10:21:17;;;;;;;22.43;16.40;;;;;;;41.12;34.61;101447.00;6159509;23;20408;-76
2022/09/11 10:23:55;;;;;;;25.93;14.53;;;;;;;41.17;34.16;101456.94;6186270;23;20137;-77
2022/09/11 10:26:57;;;;;;;27.13;16.33;;;;;;;41.06;34.36;101446.34;6159503;23;20513;-77
2022/09/11 10:29:31;;;;;;;36.43;15.57;;;;;;;40.90;34.31;101433.44;6066303;23;20415;-77
2022/09/11 10:32:04;;;;;;;20.20;12.77;;;;;;;40.91;34.64;101444.03;6167911;23;20372;-75
2022/09/11 10:34:36;;;;;;;26.80;16.87;;;;;;;40.85;34.70;101434.38;6184266;23;20383;-76
2022/09/11 10:37:25;;;;;;;26.20;13.97;;;;;;;40.53;34.77;101435.50;6158985;23;20511;-77
2022/09/11 10:39:54;;;;;;;26.70;13.90;;;;;;;40.89;34.65;101431.84;6159326;23;20380;-78
2022/09/11 10:42:29;;;;;;;27.30;15.00;;;;;;;40.88;34.59;101427.50;6159111;23;20463;-78
2022/09/11 10:45:26;;;;;;;26.23;15.07;;;;;;;40.74;35.13;101419.44;6159265;23;20383;-76
2022/09/11 10:47:52;;;;;;;29.27;15.27;;;;;;;41.25;34.39;101416.16;6155383;23;20749;-75
2022/09/11 10:50:23;;;;;;;26.50;16.10;;;;;;;40.91;34.49;101405.16;6158874;23;20702;-73
2022/09/11 10:53:02;;;;;;;28.17;15.20;;;;;;;40.79;35.41;101409.22;6159119;23;20395;-73
2022/09/11 10:55:39;;;;;;;32.90;19.63;;;;;;;40.59;35.16;101392.66;6158942;23;20387;-74
2022/09/11 10:58:13;;;;;;;30.37;13.37;;;;;;;41.02;35.06;101395.59;6158893;23;20428;-73
2022/09/11 11:00:39;;;;;;;32.33;15.93;;;;;;;41.54;34.07;101388.34;6185301;23;20740;-73
2022/09/11 11:03:28;;;;;;;30.37;15.10;;;;;;;41.71;33.69;101382.13;6183410;23;20435;-74
2022/09/11 11:06:18;;;;;;;22.17;14.03;;;;;;;42.14;32.90;101373.94;6158874;23;20400;-74
2022/09/11 11:09:07;;;;;;;30.43;14.97;;;;;;;41.80;33.43;101363.88;6159236;23;20391;-74
2022/09/11 11:12:17;;;;;;;29.37;14.80;;;;;;;41.64;33.79;101357.28;6158686;23;20415;-73
2022/09/11 11:14:43;;;;;;;30.00;12.10;;;;;;;41.66;33.77;101349.59;6158679;23;20373;-73
2022/09/11 11:18:14;;;;;;;33.63;15.40;;;;;;;41.65;33.48;101353.44;6158932;23;20439;-73
2022/09/11 11:21:20;;;;;;;34.90;12.67;;;;;;;41.46;33.97;101334.69;6070492;23;20851;-73
2022/09/11 11:24:31;;;;;;;34.17;16.70;;;;;;;40.96;35.04;101339.72;6094470;23;20410;-73
2022/09/11 11:27:38;;;;;;;29.93;14.13;;;;;;;40.66;35.53;101330.47;6154412;23;20785;-73
2022/09/11 11:30:16;;;;;;;38.23;14.33;;;;;;;40.96;34.80;101337.00;6158324;23;20450;-73
2022/09/11 11:32:48;;;;;;;45.87;15.10;;;;;;;40.97;34.72;101330.44;6158790;23;20414;-75
2022/09/11 11:35:32;;;;;;;29.70;12.63;;;;;;;40.92;34.93;101334.09;6158263;23;20738;-75
2022/09/11 11:38:26;;;;;;;18.70;13.00;;;;;;;41.12;34.47;101316.34;6158208;23;20510;-76
2022/09/11 11:41:03;;;;;;;34.17;14.53;;;;;;;41.25;34.53;101304.56;6148176;23;20727;-78
2022/09/11 11:43:33;;;;;;;22.90;14.30;;;;;;;41.20;33.58;101309.34;6183462;23;20388;-74
2022/09/11 11:46:14;;;;;;;22.13;12.30;;;;;;;40.72;34.36;101310.16;6158692;23;20435;-75
2022/09/11 11:49:04;;;;;;;22.33;13.47;;;;;;;40.43;35.24;101310.66;6158705;23;20855;-80
2022/09/11 11:51:42;;;;;;;29.37;15.03;;;;;;;40.93;34.25;101302.25;6149056;23;20723;-82
2022/09/11 11:54:19;;;;;;;37.73;12.40;;;;;;;41.39;34.04;101312.59;6158764;23;20414;-83
2022/09/11 11:56:50;;;;;;;22.10;11.13;;;;;;;41.49;33.01;101301.38;6158350;23;20990;-83
2022/09/11 11:59:41;;;;;;;20.37;10.93;;;;;;;41.27;33.85;101305.03;6158449;23;20408;-81
2022/09/11 12:02:10;;;;;;;18.47;10.00;;;;;;;41.33;33.37;101298.34;6158410;23;20464;-82
2022/09/11 12:04:54;;;;;;;21.80;11.17;;;;;;;41.42;33.11;101297.53;6158525;23;20373;-78
2022/09/11 12:07:30;;;;;;;25.13;11.90;;;;;;;40.57;34.42;101302.41;6158271;23;20431;-78
2022/09/11 12:09:58;;;;;;;25.40;12.80;;;;;;;41.74;33.02;101291.63;6158217;23;20379;-77
2022/09/11 12:12:31;;;;;;;21.23;12.00;;;;;;;41.96;32.25;101287.88;6185413;23;20344;-79
2022/09/11 12:15:05;;;;;;;23.73;11.50;;;;;;;42.11;32.68;101284.66;6158294;23;20372;-81
2022/09/11 12:17:34;;;;;;;36.53;13.20;;;;;;;41.65;32.65;101281.81;6158394;23;20435;-80
2022/09/11 12:20:12;;;;;;;27.17;10.00;;;;;;;41.82;32.83;101282.63;6157986;23;20375;-78
2022/09/11 12:22:43;;;;;;;18.23;12.60;;;;;;;41.40;32.96;101278.00;6157921;23;20859;-75
2022/09/11 12:25:18;;;;;;;20.63;10.80;;;;;;;40.46;34.74;101286.38;6157883;23;20364;-74
2022/09/11 12:27:50;;;;;;;16.37;10.57;;;;;;;40.40;35.19;101263.16;6157960;23;20368;-74
2022/09/11 12:30:16;;;;;;;23.90;11.17;;;;;;;40.50;34.33;101262.09;6157651;23;20368;-74
2022/09/11 12:32:48;;;;;;;20.17;12.90;;;;;;;40.71;34.16;101271.28;6157946;23;20387;-75
2022/09/11 12:35:45;;;;;;;19.53;11.27;;;;;;;41.28;33.44;101254.09;6157731;23;20388;-78
2022/09/11 12:38:22;;;;;;;37.53;14.43;;;;;;;41.89;33.05;101262.25;6182564;23;20436;-73
2022/09/11 12:40:55;;;;;;;26.83;12.47;;;;;;;41.85;32.36;101260.16;6157817;23;20725;-73
2022/09/11 12:43:35;;;;;;;24.67;11.53;;;;;;;41.43;32.64;101239.22;6157963;23;20396;-78
2022/09/11 12:46:05;;;;;;;23.43;13.30;;;;;;;41.91;32.24;101230.03;6185043;23;20352;-77
2022/09/11 12:48:51;;;;;;;19.83;11.17;;;;;;;41.63;32.32;101227.69;6157868;23;20420;-77
2022/09/11 12:51:31;;;;;;;22.33;11.37;;;;;;;41.07;32.56;101227.53;6182689;23;20446;-77
2022/09/11 12:54:03;;;;;;;19.60;10.67;;;;;;;41.11;33.49;101229.59;6157730;23;20430;-79
2022/09/11 12:56:35;;;;;;;19.47;10.53;;;;;;;40.20;34.92;101223.72;6158098;23;20423;-79
2022/09/11 12:59:08;;;;;;;19.40;9.80;;;;;;;40.97;33.70;101208.00;6184474;23;20396;-80
2022/09/11 13:01:45;;;;;;;18.90;10.47;;;;;;;41.51;32.55;101206.56;6157460;23;20486;-79
2022/09/11 13:04:14;;;;;;;22.03;12.80;;;;;;;41.03;33.46;101184.94;6157590;23;20375;-78
2022/09/11 13:06:53;;;;;;;22.47;11.00;;;;;;;41.17;32.61;101180.13;6157713;23;20833;-77
2022/09/11 13:09:39;;;;;;;17.23;10.20;;;;;;;41.13;32.73;101168.28;6182974;23;20384;-77
2022/09/11 13:12:23;;;;;;;20.10;12.77;;;;;;;41.76;32.27;101164.06;6182871;23;20383;-78
2022/09/11 13:14:56;;;;;;;27.83;14.00;;;;;;;41.78;32.30;101158.28;6157946;23;20463;-78
2022/09/11 13:17:29;;;;;;;20.77;9.73;;;;;;;41.50;32.91;101138.81;6157896;23;20424;-78
2022/09/11 13:20:04;;;;;;;20.93;12.30;;;;;;;41.60;32.50;101143.88;6157810;23;20755;-77
2022/09/11 13:22:33;;;;;;;21.80;11.03;;;;;;;41.89;32.43;101129.53;6184352;23;20351;-77
2022/09/11 13:25:19;;;;;;;24.33;11.93;;;;;;;42.51;31.79;101128.09;6184471;23;20360;-79
2022/09/11 13:27:50;;;;;;;26.20;13.57;;;;;;;42.73;30.67;101124.28;6158009;23;20404;-79
2022/09/11 13:30:20;;;;;;;19.83;12.10;;;;;;;42.37;30.63;101115.50;6157616;23;20399;-78
2022/09/11 13:32:50;;;;;;;23.60;10.50;;;;;;;42.30;30.68;101117.97;6158108;23;20732;-77
2022/09/11 13:35:28;;;;;;;25.40;12.70;;;;;;;41.99;31.20;101110.09;6157638;23;20709;-78
2022/09/11 13:38:17;;;;;;;24.00;10.57;;;;;;;42.06;31.08;101109.59;6156244;23;20431;-78
2022/09/11 13:40:59;;;;;;;26.07;10.53;;;;;;;41.41;32.18;101091.72;6155925;23;20458;-78
2022/09/11 13:43:35;;;;;;;25.00;12.23;;;;;;;41.78;31.39;101090.97;6181373;23;20364;-78
2022/09/11 13:46:10;;;;;;;25.43;11.20;;;;;;;42.09;31.41;101103.47;6157653;23;20407;-79
2022/09/11 13:48:36;;;;;;;20.50;12.20;;;;;;;41.99;30.84;101095.66;6155891;23;20439;-77
2022/09/11 13:51:03;;;;;;;24.43;12.20;;;;;;;41.61;31.91;101105.41;6157595;23;20423;-77
2022/09/11 13:53:32;;;;;;;26.03;12.63;;;;;;;41.25;32.22;101089.50;6156198;23;20450;-77
2022/09/11 13:55:58;;;;;;;23.10;11.43;;;;;;;41.69;31.72;101081.22;6159556;23;20740;-79
2022/09/11 13:58:34;;;;;;;21.30;11.93;;;;;;;41.50;31.92;101074.25;6158989;23;20446;-78
2022/09/11 14:01:12;;;;;;;24.60;12.77;;;;;;;41.77;32.00;101078.47;6157373;23;20386;-76
2022/09/11 14:03:44;;;;;;;22.87;10.97;;;;;;;41.75;32.40;101063.59;6159580;23;20930;-77
2022/09/11 14:06:16;;;;;;;21.43;11.90;;;;;;;41.70;32.92;101055.56;6159841;23;20372;-74
2022/09/11 14:08:49;;;;;;;22.03;11.30;;;;;;;41.89;32.12;101049.72;6159633;23;20374;-76
2022/09/11 14:11:30;;;;;;;25.80;12.27;;;;;;;41.33;32.87;101047.06;6159587;23;20383;-77
2022/09/11 14:14:24;;;;;;;21.40;12.97;;;;;;;41.20;33.72;101048.06;6159567;23;20380;-77
2022/09/11 14:16:58;;;;;;;22.67;12.60;;;;;;;41.47;32.84;101058.53;6158748;23;20430;-78
2022/09/11 14:19:30;;;;;;;23.50;13.07;;;;;;;41.48;32.76;101045.72;6186449;23;20436;-75
2022/09/11 14:21:57;;;;;;;29.43;12.67;;;;;;;42.24;31.73;101037.50;6159589;23;20387;-74
2022/09/11 14:24:33;;;;;;;27.27;13.00;;;;;;;42.18;31.82;101044.28;6159649;23;20380;-80
2022/09/11 14:27:26;;;;;;;21.03;13.60;;;;;;;41.03;33.66;101035.28;6186193;23;20368;-81
2022/09/11 14:30:33;;;;;;;30.17;11.50;;;;;;;41.23;33.31;101012.00;6187779;23;20380;-85
2022/09/11 14:33:25;;;;;;;32.30;13.83;;;;;;;40.99;33.25;101020.72;6072218;23;20394;-79
2022/09/11 14:35:58;;;;;;;31.67;13.43;;;;;;;41.31;33.60;101009.25;6154643;23;20395;-81
2022/09/11 14:38:25;;;;;;;23.60;14.50;;;;;;;40.98;33.55;101008.25;6158855;23;20935;-81
2022/09/11 14:40:58;;;;;;;23.60;12.57;;;;;;;40.67;33.82;101009.22;6158822;23;20388;-75
2022/09/11 14:43:32;;;;;;;29.90;14.50;;;;;;;40.77;33.71;101010.81;6158573;23;20372;-76
2022/09/11 14:46:00;;;;;;;26.57;14.10;;;;;;;41.48;32.73;100994.78;6158370;23;20867;-78
2022/09/11 14:48:32;;;;;;;31.20;15.67;;;;;;;41.43;32.95;100992.25;6185504;23;20360;-78
2022/09/11 14:50:59;;;;;;;42.60;13.30;;;;;;;41.77;32.57;100991.31;6159099;23;20853;-79
2022/09/11 14:53:30;;;;;;;21.20;14.33;;;;;;;41.74;32.53;100994.69;6185675;23;20393;-80
2022/09/11 14:55:58;;;;;;;32.10;12.77;;;;;;;41.86;31.86;100988.50;6159331;23;20390;-79
2022/09/11 14:58:26;;;;;;;30.73;13.60;;;;;;;41.92;32.18;100986.38;6158775;23;20434;-79
2022/09/11 15:00:52;;;;;;;21.70;10.63;;;;;;;41.78;32.04;100984.72;6158009;23;20412;-76
2022/09/11 15:03:19;;;;;;;27.37;14.67;;;;;;;42.31;31.60;100977.78;6158962;23;20375;-78
2022/09/11 15:05:50;;;;;;;28.73;13.10;;;;;;;41.89;31.99;100970.72;6158810;23;20381;-78
2022/09/11 15:08:16;;;;;;;32.60;14.23;;;;;;;42.29;31.24;100971.06;6158670;23;20888;-78
2022/09/11 15:10:45;;;;;;;22.47;14.27;;;;;;;42.18;31.40;100967.16;6159364;23;20535;-78
2022/09/11 15:13:12;;;;;;;43.30;15.07;;;;;;;42.33;31.77;100964.59;6185189;23;20398;-79
2022/09/11 15:15:39;;;;;;;24.77;12.50;;;;;;;42.03;31.60;100952.97;6158275;23;20388;-77
2022/09/11 15:18:06;;;;;;;21.40;12.00;;;;;;;41.93;31.36;100942.47;6158587;23;20432;-78
2022/09/11 15:20:32;;;;;;;31.60;12.43;;;;;;;42.40;31.17;100956.69;6158831;23;20390;-79
2022/09/11 15:22:59;;;;;;;19.13;13.27;;;;;;;42.04;31.55;100959.22;6158459;23;20419;-77
2022/09/11 15:25:25;;;;;;;23.10;10.87;;;;;;;41.82;31.77;100957.63;6158729;23;20390;-79
2022/09/11 15:27:52;;;;;;;23.73;12.67;;;;;;;42.20;31.29;100962.16;6158817;23;20388;-81
2022/09/11 15:30:21;;;;;;;26.20;13.20;;;;;;;41.70;31.86;100957.50;6157206;23;20384;-79
2022/09/11 15:32:48;;;;;;;22.70;14.73;;;;;;;42.05;31.22;100958.06;6158980;23;20380;-79
2022/09/11 15:35:17;;;;;;;29.73;15.07;;;;;;;42.15;31.71;100957.69;6158180;23;20467;-77
2022/09/11 15:37:45;;;;;;;26.37;13.07;;;;;;;42.02;31.27;100929.56;6185419;23;20411;-78
2022/09/11 15:40:12;;;;;;;20.73;11.63;;;;;;;41.73;31.68;100926.88;6158648;23;20392;-77
2022/09/11 15:42:38;;;;;;;24.67;13.83;;;;;;;41.86;31.91;100934.03;6158813;23;20927;-79
2022/09/11 15:45:05;;;;;;;26.13;13.77;;;;;;;41.36;32.79;100926.63;6158111;23;20468;-78
2022/09/11 15:47:31;;;;;;;31.57;14.23;;;;;;;41.53;32.51;100923.00;6158703;23;20396;-77
2022/09/11 15:49:57;;;;;;;31.90;16.40;;;;;;;41.45;33.12;100929.31;6158822;23;20392;-77
2022/09/11 15:52:26;;;;;;;22.30;11.57;;;;;;;41.01;33.22;100920.53;6184927;23;20364;-79
2022/09/11 15:54:52;;;;;;;30.00;13.77;;;;;;;41.53;32.76;100925.72;6158355;23;20412;-78
2022/09/11 15:57:18;;;;;;;24.40;13.53;;;;;;;41.10;33.46;100932.16;6158258;23;20463;-77
2022/09/11 15:59:45;;;;;;;25.83;14.60;;;;;;;41.06;33.07;100923.06;6157624;23;20902;-76
2022/09/11 16:02:11;;;;;;;26.93;13.87;;;;;;;41.10;33.24;100928.66;6158025;23;20438;-80
2022/09/11 16:04:37;;;;;;;24.93;14.07;;;;;;;40.78;33.78;100934.34;6158223;23;20390;-80
2022/09/11 16:07:04;;;;;;;20.87;12.27;;;;;;;41.05;33.74;100926.91;6158199;23;20856;-77
2022/09/11 16:09:31;;;;;;;29.40;16.33;;;;;;;40.81;33.93;100930.16;6158421;23;20726;-75
2022/09/11 16:11:59;;;;;;;27.83;11.50;;;;;;;40.44;34.71;100937.09;6158181;23;20427;-75
2022/09/11 16:14:28;;;;;;;24.50;13.07;;;;;;;40.58;34.18;100934.19;6158144;23;20442;-74
2022/09/11 16:16:56;;;;;;;24.63;14.40;;;;;;;40.44;34.53;100945.25;6158179;23;20424;-74
2022/09/11 16:19:27;;;;;;;28.20;14.50;;;;;;;40.74;34.06;100927.94;6158265;23;20384;-75
2022/09/11 16:21:59;;;;;;;25.03;12.50;;;;;;;40.26;34.59;100944.44;6158509;23;20384;-75
2022/09/11 16:24:27;;;;;;;24.30;11.60;;;;;;;40.14;35.09;100925.28;6158254;23;20415;-76
2022/09/11 16:26:54;;;;;;;25.13;13.20;;;;;;;40.40;35.38;100931.50;6158534;23;20403;-75
2022/09/11 16:29:21;;;;;;;28.10;13.73;;;;;;;40.24;35.39;100931.19;6157524;23;20841;-75
2022/09/11 16:31:48;;;;;;;29.67;12.97;;;;;;;40.25;35.34;100932.78;6158244;23;20380;-75
2022/09/11 16:34:16;;;;;;;35.27;15.43;;;;;;;40.24;35.46;100935.81;6158368;23;20423;-74
2022/09/11 16:36:44;;;;;;;30.03;13.60;;;;;;;40.65;35.14;100934.53;6158309;23;20431;-75
2022/09/11 16:39:16;;;;;;;30.53;12.43;;;;;;;40.01;35.71;100938.66;6158220;23;20395;-75
2022/09/11 16:41:42;;;;;;;24.93;10.90;;;;;;;40.11;35.17;100942.22;6157395;23;20399;-71
2022/09/11 16:44:11;;;;;;;32.20;12.20;;;;;;;40.25;35.00;100951.81;6158021;23;20394;-73
2022/09/11 16:46:39;;;;;;;18.00;11.83;;;;;;;40.45;35.12;100957.69;6158009;23;20438;-72
2022/09/11 16:49:06;;;;;;;23.57;12.83;;;;;;;40.31;35.75;100957.88;6158007;23;20407;-72
2022/09/11 16:51:33;;;;;;;26.90;14.20;;;;;;;40.07;35.43;100963.78;6158087;23;20391;-71